Time,TemperatureF,DewpointF,PressureIn,WindDirection,WindDirectionDegrees,WindSpeedMPH,WindSpeedGustMPH,Humidity,HourlyPrecipIn,Conditions,Clouds,dailyrainin,SoftwareType,DateUTC
2013-01-24 00:02:00,12.2,6.1,30.25,NW,306,0.0,0.0,76,0.00,,,0.00,Wunderground v.1.15,2013-01-24 05:02:00,
2013-01-24 00:08:00,12.3,6.2,30.24,NW,306,0.0,0.0,76,0.00,,,0.00,Wunderground v.1.15,2013-01-24 05:08:00,
2013-01-24 00:14:00,12.2,6.1,30.24,NW,306,0.0,0.0,76,0.00,,,0.00,Wunderground v.1.15,2013-01-24 05:14:00,
2013-01-24 00:20:00,12.0,5.9,30.23,NW,306,0.0,0.0,76,0.00,,,0.00,Wunderground v.1.15,2013-01-24 05:20:00,
2013-01-24 00:26:00,11.9,5.8,30.23,NW,306,0.0,0.0,76,0.00,,,0.00,Wunderground v.1.15,2013-01-24 05:26:00,
2013-01-24 00:32:00,11.8,5.7,30.23,NW,306,0.0,0.0,76,0.00,,,0.00,Wunderground v.1.15,2013-01-24 05:32:00,
2013-01-24 00:38:00,11.7,5.6,30.22,NW,306,0.0,0.0,76,0.00,,,0.00,Wunderground v.1.15,2013-01-24 05:38:00,
2013-01-24 00:44:00,11.6,5.8,30.22,NW,306,0.0,0.0,77,0.00,,,0.00,Wunderground v.1.15,2013-01-24 05:44:00,
2013-01-24 00:50:00,11.7,5.9,30.22,NW,306,0.0,0.0,77,0.00,,,0.00,Wunderground v.1.15,2013-01-24 05:50:00,
2013-01-24 00:56:00,11.7,5.9,30.21,NW,306,0.0,1.0,77,0.00,,,0.00,Wunderground v.1.15,2013-01-24 05:56:00,
2013-01-24 01:02:00,11.8,6.0,30.21,NW,306,0.0,0.0,77,0.00,,,0.00,Wunderground v.1.15,2013-01-24 06:02:00,
2013-01-24 01:08:00,11.9,6.4,30.21,NW,306,0.0,0.0,78,0.00,,,0.00,Wunderground v.1.15,2013-01-24 06:08:00,
2013-01-24 01:14:00,12.0,6.5,30.20,NW,306,0.0,0.0,78,0.00,,,0.00,Wunderground v.1.15,2013-01-24 06:14:00,
2013-01-24 01:20:00,12.1,6.8,30.20,NW,306,0.0,0.0,79,0.00,,,0.00,Wunderground v.1.15,2013-01-24 06:20:00,
2013-01-24 01:26:00,12.2,6.9,30.20,NW,306,0.0,0.0,79,0.00,,,0.00,Wunderground v.1.15,2013-01-24 06:26:00,
2013-01-24 01:32:00,12.2,6.9,30.20,NW,306,0.0,0.0,79,0.00,,,0.00,Wunderground v.1.15,2013-01-24 06:32:00,
2013-01-24 01:38:00,12.2,6.9,30.20,NW,306,0.0,0.0,79,0.00,,,0.00,Wunderground v.1.15,2013-01-24 06:38:00,
2013-01-24 01:44:00,12.2,6.9,30.20,NW,306,0.0,0.0,79,0.00,,,0.00,Wunderground v.1.15,2013-01-24 06:44:00,
2013-01-24 01:50:00,12.1,6.8,30.20,NW,306,0.0,0.0,79,0.00,,,0.00,Wunderground v.1.15,2013-01-24 06:50:00,
2013-01-24 01:56:00,12.1,6.8,30.20,NW,306,0.0,0.0,79,0.00,,,0.00,Wunderground v.1.15,2013-01-24 06:56:00,
2013-01-24 02:02:00,12.0,6.7,30.20,NW,306,0.0,0.0,79,0.00,,,0.00,Wunderground v.1.15,2013-01-24 07:02:00,
2013-01-24 02:09:00,11.9,6.6,30.19,NW,306,0.0,0.0,79,0.00,,,0.00,Wunderground v.1.15,2013-01-24 07:09:00,
2013-01-24 02:14:00,11.7,6.4,30.19,NW,306,0.0,0.0,79,0.00,,,0.00,Wunderground v.1.15,2013-01-24 07:14:00,
2013-01-24 02:21:00,11.6,6.3,30.19,NW,306,0.0,0.0,79,0.00,,,0.00,Wunderground v.1.15,2013-01-24 07:21:00,
2013-01-24 02:26:00,11.4,6.2,30.19,NW,306,0.0,0.0,79,0.00,,,0.00,Wunderground v.1.15,2013-01-24 07:26:00,
2013-01-24 02:32:00,11.3,6.1,30.19,NW,306,0.0,0.0,79,0.00,,,0.00,Wunderground v.1.15,2013-01-24 07:32:00,
2013-01-24 02:38:00,11.4,6.4,30.19,NW,306,0.0,0.0,80,0.00,,,0.00,Wunderground v.1.15,2013-01-24 07:38:00,
2013-01-24 02:44:00,11.4,6.4,30.19,NW,306,0.0,0.0,80,0.00,,,0.00,Wunderground v.1.15,2013-01-24 07:44:00,
2013-01-24 02:50:00,11.3,6.3,30.19,NW,306,0.0,0.0,80,0.00,,,0.00,Wunderground v.1.15,2013-01-24 07:50:00,
2013-01-24 02:56:00,11.4,6.4,30.19,NW,306,0.0,0.0,80,0.00,,,0.00,Wunderground v.1.15,2013-01-24 07:56:00,
2013-01-24 03:02:00,11.6,6.6,30.19,NW,306,0.0,0.0,80,0.00,,,0.00,Wunderground v.1.15,2013-01-24 08:02:00,
2013-01-24 03:08:00,11.6,6.6,30.19,NW,306,0.0,0.0,80,0.00,,,0.00,Wunderground v.1.15,2013-01-24 08:08:00,
2013-01-24 03:14:00,11.6,6.6,30.19,NW,306,0.0,0.0,80,0.00,,,0.00,Wunderground v.1.15,2013-01-24 08:14:00,
2013-01-24 03:20:00,11.5,6.5,30.18,NW,306,0.0,0.0,80,0.00,,,0.00,Wunderground v.1.15,2013-01-24 08:20:00,
2013-01-24 03:26:00,11.5,6.5,30.18,NW,306,0.0,0.0,80,0.00,,,0.00,Wunderground v.1.15,2013-01-24 08:26:00,
2013-01-24 03:32:00,11.4,6.4,30.18,NW,306,0.0,0.0,80,0.00,,,0.00,Wunderground v.1.15,2013-01-24 08:32:00,
2013-01-24 03:38:00,11.3,6.3,30.18,NW,306,0.0,0.0,80,0.00,,,0.00,Wunderground v.1.15,2013-01-24 08:38:00,
2013-01-24 03:44:00,11.2,6.2,30.18,NW,306,0.0,0.0,80,0.00,,,0.00,Wunderground v.1.15,2013-01-24 08:44:00,
2013-01-24 03:50:00,11.3,6.6,30.18,NW,306,0.0,0.0,81,0.00,,,0.00,Wunderground v.1.15,2013-01-24 08:50:00,
2013-01-24 03:56:00,11.4,6.7,30.18,NW,306,0.0,0.0,81,0.00,,,0.00,Wunderground v.1.15,2013-01-24 08:56:00,
2013-01-24 04:02:00,11.6,6.9,30.18,NW,306,0.0,0.0,81,0.00,,,0.00,Wunderground v.1.15,2013-01-24 09:02:00,
2013-01-24 04:08:00,11.6,6.6,30.18,NW,306,0.0,0.0,80,0.00,,,0.00,Wunderground v.1.15,2013-01-24 09:08:00,
2013-01-24 04:15:00,11.7,6.7,30.18,NW,306,0.0,0.0,80,0.00,,,0.00,Wunderground v.1.15,2013-01-24 09:15:00,
2013-01-24 04:20:00,11.8,7.1,30.18,NW,306,0.0,0.0,81,0.00,,,0.00,Wunderground v.1.15,2013-01-24 09:20:00,
2013-01-24 04:26:00,11.9,6.9,30.18,NW,306,0.0,0.0,80,0.00,,,0.00,Wunderground v.1.15,2013-01-24 09:26:00,
2013-01-24 04:32:00,11.9,6.9,30.18,NW,306,0.0,0.0,80,0.00,,,0.00,Wunderground v.1.15,2013-01-24 09:32:00,
2013-01-24 04:39:00,12.1,7.1,30.18,NW,306,0.0,1.0,80,0.00,,,0.00,Wunderground v.1.15,2013-01-24 09:39:00,
2013-01-24 04:44:00,12.1,7.1,30.19,NW,306,0.0,0.0,80,0.00,,,0.00,Wunderground v.1.15,2013-01-24 09:44:00,
2013-01-24 04:50:00,12.2,7.2,30.19,NW,306,0.0,1.0,80,0.00,,,0.00,Wunderground v.1.15,2013-01-24 09:50:00,
2013-01-24 04:56:00,12.2,6.9,30.19,NW,306,1.0,1.0,79,0.00,,,0.00,Wunderground v.1.15,2013-01-24 09:56:00,
2013-01-24 05:02:00,12.2,6.9,30.19,NW,306,0.0,0.0,79,0.00,,,0.00,Wunderground v.1.15,2013-01-24 10:02:00,
2013-01-24 05:09:00,12.2,6.9,30.19,NW,306,0.0,1.0,79,0.00,,,0.00,Wunderground v.1.15,2013-01-24 10:09:00,
2013-01-24 05:15:00,12.2,7.2,30.20,NW,306,0.0,0.0,80,0.00,,,0.00,Wunderground v.1.15,2013-01-24 10:15:00,
2013-01-24 05:20:00,12.2,6.9,30.20,NW,306,0.0,0.0,79,0.00,,,0.00,Wunderground v.1.15,2013-01-24 10:20:00,
2013-01-24 05:27:00,12.3,7.0,30.20,NW,306,0.0,0.0,79,0.00,,,0.00,Wunderground v.1.15,2013-01-24 10:27:00,
2013-01-24 05:32:00,12.3,7.0,30.20,NW,306,0.0,0.0,79,0.00,,,0.00,Wunderground v.1.15,2013-01-24 10:32:00,
2013-01-24 05:38:00,12.3,7.0,30.20,NW,306,0.0,0.0,79,0.00,,,0.00,Wunderground v.1.15,2013-01-24 10:38:00,
2013-01-24 05:44:00,12.3,7.0,30.20,NW,306,0.0,2.0,79,0.00,,,0.00,Wunderground v.1.15,2013-01-24 10:44:00,
2013-01-24 05:50:00,12.4,6.8,30.20,NW,306,1.0,1.0,78,0.00,,,0.00,Wunderground v.1.15,2013-01-24 10:50:00,
2013-01-24 05:56:00,12.6,7.0,30.21,NW,306,1.0,2.0,78,0.00,,,0.00,Wunderground v.1.15,2013-01-24 10:56:00,
2013-01-24 06:02:00,12.7,6.9,30.21,NW,306,1.0,3.0,77,0.00,,,0.00,Wunderground v.1.15,2013-01-24 11:02:00,
2013-01-24 06:08:00,12.9,7.0,30.21,NW,306,2.0,3.0,77,0.00,,,0.00,Wunderground v.1.15,2013-01-24 11:08:00,
2013-01-24 06:14:00,13.3,7.4,30.21,NW,306,2.0,3.0,77,0.00,,,0.00,Wunderground v.1.15,2013-01-24 11:14:00,
2013-01-24 06:20:00,13.5,7.3,30.21,NW,306,2.0,2.0,76,0.00,,,0.00,Wunderground v.1.15,2013-01-24 11:20:00,
2013-01-24 06:26:00,13.6,7.4,30.22,NW,306,2.0,2.0,76,0.00,,,0.00,Wunderground v.1.15,2013-01-24 11:26:00,
2013-01-24 06:33:00,13.8,7.3,30.22,NW,306,2.0,2.0,75,0.00,,,0.00,Wunderground v.1.15,2013-01-24 11:33:00,
2013-01-24 06:38:00,13.9,7.4,30.22,NW,306,2.0,3.0,75,0.00,,,0.00,Wunderground v.1.15,2013-01-24 11:38:00,
2013-01-24 06:44:00,13.9,7.4,30.22,NW,306,2.0,2.0,75,0.00,,,0.00,Wunderground v.1.15,2013-01-24 11:44:00,
2013-01-24 06:50:00,13.9,7.4,30.22,NW,306,1.0,1.0,75,0.00,,,0.00,Wunderground v.1.15,2013-01-24 11:50:00,
2013-01-24 06:57:00,13.9,7.4,30.22,NW,306,2.0,3.0,75,0.00,,,0.00,Wunderground v.1.15,2013-01-24 11:57:00,
2013-01-24 07:03:00,13.8,7.3,30.22,NW,306,2.0,2.0,75,0.00,,,0.00,Wunderground v.1.15,2013-01-24 12:03:00,
2013-01-24 07:08:00,13.9,7.4,30.23,NW,306,2.0,3.0,75,0.00,,,0.00,Wunderground v.1.15,2013-01-24 12:08:00,
2013-01-24 07:14:00,13.9,7.4,30.23,NW,306,2.0,3.0,75,0.00,,,0.00,Wunderground v.1.15,2013-01-24 12:14:00,
2013-01-24 07:20:00,13.9,7.1,30.23,North,355,2.0,2.0,74,0.00,,,0.00,Wunderground v.1.15,2013-01-24 12:20:00,
2013-01-24 07:26:00,14.1,7.0,30.23,NW,315,2.0,4.0,73,0.00,,,0.00,Wunderground v.1.15,2013-01-24 12:26:00,
2013-01-24 07:32:00,14.2,6.8,30.23,North,355,2.0,4.0,72,0.00,,,0.00,Wunderground v.1.15,2013-01-24 12:32:00,
2013-01-24 07:38:00,14.5,6.8,30.23,NNW,336,2.0,4.0,71,0.00,,,0.00,Wunderground v.1.15,2013-01-24 12:38:00,
2013-01-24 07:44:00,15.0,7.0,30.23,North,5,3.0,3.0,70,0.00,,,0.00,Wunderground v.1.15,2013-01-24 12:44:00,
2013-01-24 07:50:00,15.4,6.7,30.24,NNE,17,4.0,4.0,68,0.00,,,0.00,Wunderground v.1.15,2013-01-24 12:50:00,
2013-01-24 07:56:00,15.8,6.8,30.24,North,5,4.0,4.0,67,0.00,,,0.00,Wunderground v.1.15,2013-01-24 12:56:00,
2013-01-24 08:03:00,16.0,6.6,30.24,NNE,26,4.0,6.0,66,0.00,,,0.00,Wunderground v.1.15,2013-01-24 13:03:00,
2013-01-24 08:08:00,16.4,7.0,30.24,NNW,347,5.0,7.0,66,0.00,,,0.00,Wunderground v.1.15,2013-01-24 13:08:00,
2013-01-24 08:15:00,16.9,7.2,30.24,NW,319,6.0,7.0,65,0.00,,,0.00,Wunderground v.1.15,2013-01-24 13:15:00,
2013-01-24 08:20:00,17.2,7.4,30.25,North,11,5.0,5.0,65,0.00,,,0.00,Wunderground v.1.15,2013-01-24 13:20:00,
2013-01-24 08:26:00,17.7,7.6,30.25,NNW,334,5.0,8.0,64,0.00,,,0.00,Wunderground v.1.15,2013-01-24 13:26:00,
2013-01-24 08:32:00,18.1,8.0,30.25,NE,42,5.0,7.0,64,0.00,,,0.00,Wunderground v.1.15,2013-01-24 13:32:00,
2013-01-24 08:38:00,18.5,8.0,30.25,NNW,329,4.0,7.0,63,0.00,,,0.00,Wunderground v.1.15,2013-01-24 13:38:00,
2013-01-24 08:44:00,19.0,7.7,30.25,NW,316,5.0,6.0,61,0.00,,,0.00,Wunderground v.1.15,2013-01-24 13:44:00,
2013-01-24 08:50:00,19.0,7.4,30.26,North,349,6.0,6.0,60,0.00,,,0.00,Wunderground v.1.15,2013-01-24 13:50:00,
2013-01-24 08:56:00,19.3,7.7,30.26,NE,47,5.0,10.0,60,0.00,,,0.00,Wunderground v.1.15,2013-01-24 13:56:00,
2013-01-24 09:02:00,19.9,7.9,30.26,NNE,13,5.0,8.0,59,0.00,,,0.00,Wunderground v.1.15,2013-01-24 14:02:00,
2013-01-24 09:08:00,20.0,6.8,30.26,North,355,6.0,8.0,56,0.00,,,0.00,Wunderground v.1.15,2013-01-24 14:08:00,
2013-01-24 09:14:00,20.3,7.1,30.26,NNW,331,6.0,6.0,56,0.00,,,0.00,Wunderground v.1.15,2013-01-24 14:14:00,
2013-01-24 09:20:00,20.4,6.4,30.26,NNW,344,6.0,8.0,54,0.00,,,0.00,Wunderground v.1.15,2013-01-24 14:20:00,
2013-01-24 09:26:00,20.2,6.6,30.26,NE,35,7.0,8.0,55,0.00,,,0.00,Wunderground v.1.15,2013-01-24 14:26:00,
2013-01-24 09:32:00,20.6,7.4,30.27,NNW,344,6.0,6.0,56,0.00,,,0.00,Wunderground v.1.15,2013-01-24 14:32:00,
2013-01-24 09:38:00,21.3,7.2,30.27,NNW,346,5.0,9.0,54,0.00,,,0.00,Wunderground v.1.15,2013-01-24 14:38:00,
2013-01-24 09:44:00,21.5,6.1,30.27,WNW,296,6.0,10.0,51,0.00,,,0.00,Wunderground v.1.15,2013-01-24 14:44:00,
2013-01-24 09:50:00,21.3,6.0,30.28,North,355,7.0,7.0,51,0.00,,,0.00,Wunderground v.1.15,2013-01-24 14:50:00,
2013-01-24 09:56:00,21.5,6.1,30.28,North,355,6.0,10.0,51,0.00,,,0.00,Wunderground v.1.15,2013-01-24 14:56:00,
2013-01-24 10:03:00,21.6,5.4,30.28,NNE,17,7.0,7.0,49,0.00,,,0.00,Wunderground v.1.15,2013-01-24 15:03:00,
2013-01-24 10:08:00,21.3,5.5,30.28,WNW,287,7.0,11.0,50,0.00,,,0.00,Wunderground v.1.15,2013-01-24 15:08:00,
2013-01-24 10:15:00,22.1,6.3,30.28,NNE,21,7.0,13.0,50,0.00,,,0.00,Wunderground v.1.15,2013-01-24 15:15:00,
2013-01-24 10:20:00,22.7,5.9,30.28,North,355,7.0,7.0,48,0.00,,,0.00,Wunderground v.1.15,2013-01-24 15:20:00,
2013-01-24 10:26:00,22.6,5.8,30.29,NNE,12,7.0,11.0,48,0.00,,,0.00,Wunderground v.1.15,2013-01-24 15:26:00,
2013-01-24 10:32:00,22.3,5.1,30.29,NNW,348,7.0,13.0,47,0.00,,,0.00,Wunderground v.1.15,2013-01-24 15:32:00,
2013-01-24 10:38:00,22.6,5.8,30.29,WNW,292,7.0,13.0,48,0.00,,,0.00,Wunderground v.1.15,2013-01-24 15:38:00,
2013-01-24 10:44:00,23.3,7.4,30.29,NNW,343,6.0,7.0,50,0.00,,,0.00,Wunderground v.1.15,2013-01-24 15:44:00,
2013-01-24 10:50:00,24.2,6.8,30.29,North,360,5.0,6.0,47,0.00,,,0.00,Wunderground v.1.15,2013-01-24 15:50:00,
2013-01-24 10:56:00,24.6,6.7,30.29,NE,53,6.0,7.0,46,0.00,,,0.00,Wunderground v.1.15,2013-01-24 15:56:00,
2013-01-24 11:02:00,24.9,7.0,30.29,NNE,22,6.0,6.0,46,0.00,,,0.00,Wunderground v.1.15,2013-01-24 16:02:00,
2013-01-24 11:08:00,25.3,6.4,30.29,NW,315,5.0,10.0,44,0.00,,,0.00,Wunderground v.1.15,2013-01-24 16:08:00,
2013-01-24 11:14:00,25.4,4.4,30.29,NNW,338,7.0,9.0,40,0.00,,,0.00,Wunderground v.1.15,2013-01-24 16:14:00,
2013-01-24 11:20:00,25.3,4.3,30.28,WNW,290,7.0,8.0,40,0.00,,,0.00,Wunderground v.1.15,2013-01-24 16:20:00,
2013-01-24 11:26:00,25.4,4.4,30.29,North,11,7.0,8.0,40,0.00,,,0.00,Wunderground v.1.15,2013-01-24 16:26:00,
2013-01-24 11:32:00,25.8,4.2,30.28,NW,306,6.0,10.0,39,0.00,,,0.00,Wunderground v.1.15,2013-01-24 16:32:00,
2013-01-24 11:39:00,25.8,3.1,30.29,NNW,345,8.0,10.0,37,0.00,,,0.00,Wunderground v.1.15,2013-01-24 16:39:00,
2013-01-24 11:44:00,25.5,2.2,30.28,NNW,343,9.0,12.0,36,0.00,,,0.00,Wunderground v.1.15,2013-01-24 16:44:00,
2013-01-24 11:50:00,24.7,0.9,30.28,NNW,344,8.0,8.0,35,0.00,,,0.00,Wunderground v.1.15,2013-01-24 16:50:00,
2013-01-24 11:56:00,25.0,2.3,30.28,NNE,24,7.0,12.0,37,0.00,,,0.00,Wunderground v.1.15,2013-01-24 16:56:00,
2013-01-24 12:03:00,25.0,0.5,30.28,North,355,9.0,13.0,34,0.00,,,0.00,Wunderground v.1.15,2013-01-24 17:03:00,
2013-01-24 12:08:00,25.4,-0.4,30.28,NNE,28,9.0,13.0,32,0.00,,,0.00,Wunderground v.1.15,2013-01-24 17:08:00,
2013-01-24 12:15:00,25.4,0.2,30.28,North,355,8.0,10.0,33,0.00,,,0.00,Wunderground v.1.15,2013-01-24 17:15:00,
2013-01-24 12:20:00,26.0,0.8,30.28,WNW,296,9.0,9.0,33,0.00,,,0.00,Wunderground v.1.15,2013-01-24 17:20:00,
2013-01-24 12:27:00,25.7,1.2,30.28,NNW,343,9.0,13.0,34,0.00,,,0.00,Wunderground v.1.15,2013-01-24 17:27:00,
2013-01-24 12:32:00,26.3,0.4,30.28,North,11,7.0,12.0,32,0.00,,,0.00,Wunderground v.1.15,2013-01-24 17:32:00,
2013-01-24 12:39:00,26.7,0.7,30.28,West,281,6.0,12.0,32,0.00,,,0.00,Wunderground v.1.15,2013-01-24 17:39:00,
2013-01-24 12:44:00,26.8,0.2,30.28,North,5,7.0,18.0,31,0.00,,,0.00,Wunderground v.1.15,2013-01-24 17:44:00,
2013-01-24 12:50:00,26.4,1.1,30.28,NNE,22,7.0,7.0,33,0.00,,,0.00,Wunderground v.1.15,2013-01-24 17:50:00,
2013-01-24 12:56:00,26.6,0.0,30.28,NNW,328,6.0,11.0,31,0.00,,,0.00,Wunderground v.1.15,2013-01-24 17:56:00,
2013-01-24 13:02:00,27.1,0.4,30.28,NNW,330,8.0,8.0,31,0.00,,,0.00,Wunderground v.1.15,2013-01-24 18:02:00,
2013-01-24 13:08:00,27.3,-0.1,30.28,NNW,346,6.0,8.0,30,0.00,,,0.00,Wunderground v.1.15,2013-01-24 18:08:00,
2013-01-24 13:15:00,27.5,0.1,30.28,WNW,301,7.0,15.0,30,0.00,,,0.00,Wunderground v.1.15,2013-01-24 18:15:00,
2013-01-24 13:20:00,26.6,-0.7,30.29,NW,307,11.0,11.0,30,0.00,,,0.00,Wunderground v.1.15,2013-01-24 18:20:00,
2013-01-24 13:26:00,26.8,0.2,30.29,NE,46,9.0,11.0,31,0.00,,,0.00,Wunderground v.1.15,2013-01-24 18:26:00,
2013-01-24 13:32:00,27.1,0.4,30.28,WNW,295,9.0,11.0,31,0.00,,,0.00,Wunderground v.1.15,2013-01-24 18:32:00,
2013-01-24 13:38:00,27.1,0.4,30.29,WNW,303,10.0,12.0,31,0.00,,,0.00,Wunderground v.1.15,2013-01-24 18:38:00,
2013-01-24 13:44:00,27.3,0.6,30.29,WNW,295,9.0,14.0,31,0.00,,,0.00,Wunderground v.1.15,2013-01-24 18:44:00,
2013-01-24 13:51:00,26.9,-0.5,30.29,NNW,336,10.0,10.0,30,0.00,,,0.00,Wunderground v.1.15,2013-01-24 18:51:00,
2013-01-24 13:56:00,26.6,-0.7,30.29,NNW,340,11.0,13.0,30,0.00,,,0.00,Wunderground v.1.15,2013-01-24 18:56:00,
2013-01-24 14:02:00,26.6,0.0,30.30,NNW,343,10.0,12.0,31,0.00,,,0.00,Wunderground v.1.15,2013-01-24 19:02:00,
2013-01-24 14:08:00,27.0,0.3,30.30,NNE,15,10.0,12.0,31,0.00,,,0.00,Wunderground v.1.15,2013-01-24 19:08:00,
2013-01-24 14:14:00,26.8,0.2,30.30,WSW,247,9.0,16.0,31,0.00,,,0.00,Wunderground v.1.15,2013-01-24 19:14:00,
2013-01-24 14:20:00,27.0,0.3,30.30,NW,315,9.0,14.0,31,0.00,,,0.00,Wunderground v.1.15,2013-01-24 19:20:00,
2013-01-24 14:26:00,27.0,1.7,30.30,WNW,300,8.0,14.0,33,0.00,,,0.00,Wunderground v.1.15,2013-01-24 19:26:00,
2013-01-24 14:33:00,27.4,1.4,30.30,NNW,329,8.0,11.0,32,0.00,,,0.00,Wunderground v.1.15,2013-01-24 19:33:00,
2013-01-24 14:39:00,27.6,1.5,30.30,WNW,298,7.0,11.0,32,0.00,,,0.00,Wunderground v.1.15,2013-01-24 19:39:00,
2013-01-24 14:45:00,27.6,0.9,30.31,North,360,7.0,16.0,31,0.00,,,0.00,Wunderground v.1.15,2013-01-24 19:45:00,
2013-01-24 14:50:00,27.2,0.5,30.31,NNW,341,9.0,15.0,31,0.00,,,0.00,Wunderground v.1.15,2013-01-24 19:50:00,
2013-01-24 14:57:00,26.9,1.6,30.31,North,355,9.0,15.0,33,0.00,,,0.00,Wunderground v.1.15,2013-01-24 19:57:00,
2013-01-24 15:02:00,27.1,1.8,30.31,North,5,7.0,7.0,33,0.00,,,0.00,Wunderground v.1.15,2013-01-24 20:02:00,
2013-01-24 15:09:00,26.8,0.8,30.32,West,281,8.0,16.0,32,0.00,,,0.00,Wunderground v.1.15,2013-01-24 20:09:00,
2013-01-24 15:14:00,26.7,0.7,30.32,NW,317,9.0,13.0,32,0.00,,,0.00,Wunderground v.1.15,2013-01-24 20:14:00,
2013-01-24 15:20:00,26.7,1.4,30.33,WNW,301,9.0,9.0,33,0.00,,,0.00,Wunderground v.1.15,2013-01-24 20:20:00,
2013-01-24 15:26:00,26.6,0.7,30.33,NNW,344,9.0,13.0,32,0.00,,,0.00,Wunderground v.1.15,2013-01-24 20:26:00,
2013-01-24 15:32:00,26.7,1.4,30.33,WNW,283,8.0,9.0,33,0.00,,,0.00,Wunderground v.1.15,2013-01-24 20:32:00,
2013-01-24 15:39:00,26.9,1.6,30.33,North,360,7.0,18.0,33,0.00,,,0.00,Wunderground v.1.15,2013-01-24 20:39:00,
2013-01-24 15:45:00,26.7,1.4,30.34,NW,322,7.0,14.0,33,0.00,,,0.00,Wunderground v.1.15,2013-01-24 20:45:00,
2013-01-24 15:50:00,26.2,1.0,30.34,North,350,9.0,11.0,33,0.00,,,0.00,Wunderground v.1.15,2013-01-24 20:50:00,
2013-01-24 15:56:00,26.0,1.4,30.34,NW,317,8.0,12.0,34,0.00,,,0.00,Wunderground v.1.15,2013-01-24 20:56:00,
2013-01-24 16:03:00,25.5,1.0,30.34,NNW,329,7.0,10.0,34,0.00,,,0.00,Wunderground v.1.15,2013-01-24 21:03:00,
2013-01-24 16:09:00,25.2,0.7,30.34,NW,314,7.0,10.0,34,0.00,,,0.00,Wunderground v.1.15,2013-01-24 21:09:00,
2013-01-24 16:14:00,24.8,1.0,30.35,NNW,333,7.0,8.0,35,0.00,,,0.00,Wunderground v.1.15,2013-01-24 21:14:00,
2013-01-24 16:20:00,24.3,1.1,30.35,NW,307,8.0,11.0,36,0.00,,,0.00,Wunderground v.1.15,2013-01-24 21:20:00,
2013-01-24 16:26:00,24.1,1.0,30.35,NW,323,8.0,11.0,36,0.00,,,0.00,Wunderground v.1.15,2013-01-24 21:26:00,
2013-01-24 16:32:00,23.9,1.4,30.36,NW,321,8.0,8.0,37,0.00,,,0.00,Wunderground v.1.15,2013-01-24 21:32:00,
2013-01-24 16:39:00,23.8,1.3,30.36,NNW,327,7.0,13.0,37,0.00,,,0.00,Wunderground v.1.15,2013-01-24 21:39:00,
2013-01-24 16:44:00,23.6,1.1,30.36,West,274,7.0,9.0,37,0.00,,,0.00,Wunderground v.1.15,2013-01-24 21:44:00,
2013-01-24 16:50:00,23.3,1.4,30.36,WNW,302,8.0,8.0,38,0.00,,,0.00,Wunderground v.1.15,2013-01-24 21:50:00,
2013-01-24 16:56:00,23.1,1.8,30.37,NW,305,7.0,10.0,39,0.00,,,0.00,Wunderground v.1.15,2013-01-24 21:56:00,
2013-01-24 17:03:00,22.9,1.6,30.37,North,350,8.0,13.0,39,0.00,,,0.00,Wunderground v.1.15,2013-01-24 22:03:00,
2013-01-24 17:09:00,22.7,2.0,30.38,NNW,331,8.0,17.0,40,0.00,,,0.00,Wunderground v.1.15,2013-01-24 22:09:00,
2013-01-24 17:14:00,22.6,1.9,30.38,WNW,298,8.0,8.0,40,0.00,,,0.00,Wunderground v.1.15,2013-01-24 22:14:00,
2013-01-24 17:20:00,22.4,1.7,30.38,NNW,328,6.0,6.0,40,0.00,,,0.00,Wunderground v.1.15,2013-01-24 22:20:00,
2013-01-24 17:26:00,22.3,2.1,30.39,WNW,300,7.0,7.0,41,0.00,,,0.00,Wunderground v.1.15,2013-01-24 22:26:00,
2013-01-24 17:33:00,22.1,2.5,30.39,WNW,300,5.0,7.0,42,0.00,,,0.00,Wunderground v.1.15,2013-01-24 22:33:00,
2013-01-24 17:38:00,22.0,2.4,30.39,WNW,299,5.0,11.0,42,0.00,,,0.00,Wunderground v.1.15,2013-01-24 22:38:00,
2013-01-24 17:45:00,21.9,2.8,30.40,NW,304,6.0,9.0,43,0.00,,,0.00,Wunderground v.1.15,2013-01-24 22:45:00,
2013-01-24 17:50:00,21.8,2.7,30.40,NNW,330,7.0,14.0,43,0.00,,,0.00,Wunderground v.1.15,2013-01-24 22:50:00,
2013-01-24 17:57:00,21.8,2.7,30.40,NW,311,7.0,14.0,43,0.00,,,0.00,Wunderground v.1.15,2013-01-24 22:57:00,
2013-01-24 18:02:00,21.8,2.2,30.40,NNW,329,7.0,8.0,42,0.00,,,0.00,Wunderground v.1.15,2013-01-24 23:02:00,
2013-01-24 18:09:00,21.7,2.6,30.40,NW,305,7.0,8.0,43,0.00,,,0.00,Wunderground v.1.15,2013-01-24 23:09:00,
2013-01-24 18:14:00,21.6,2.5,30.41,WNW,288,7.0,8.0,43,0.00,,,0.00,Wunderground v.1.15,2013-01-24 23:14:00,
2013-01-24 18:20:00,21.6,2.5,30.41,WNW,293,7.0,7.0,43,0.00,,,0.00,Wunderground v.1.15,2013-01-24 23:20:00,
2013-01-24 18:27:00,21.6,3.0,30.41,WNW,290,9.0,18.0,44,0.00,,,0.00,Wunderground v.1.15,2013-01-24 23:27:00,
2013-01-24 18:32:00,21.6,3.5,30.41,West,277,9.0,12.0,45,0.00,,,0.00,Wunderground v.1.15,2013-01-24 23:32:00,
2013-01-24 18:39:00,21.5,3.4,30.42,NW,319,8.0,12.0,45,0.00,,,0.00,Wunderground v.1.15,2013-01-24 23:39:00,
2013-01-24 18:44:00,21.4,3.3,30.42,NW,308,7.0,10.0,45,0.00,,,0.00,Wunderground v.1.15,2013-01-24 23:44:00,
2013-01-24 18:50:00,21.2,3.1,30.43,WNW,294,6.0,6.0,45,0.00,,,0.00,Wunderground v.1.15,2013-01-24 23:50:00,
2013-01-24 18:56:00,21.1,2.6,30.43,NW,311,5.0,6.0,44,0.00,,,0.00,Wunderground v.1.15,2013-01-24 23:56:00,
2013-01-24 19:02:00,21.0,2.0,30.43,NW,313,7.0,17.0,43,0.00,,,0.00,Wunderground v.1.15,2013-01-25 00:02:00,
2013-01-24 19:08:00,20.9,1.9,30.43,West,272,8.0,17.0,43,0.00,,,0.00,Wunderground v.1.15,2013-01-25 00:08:00,
2013-01-24 19:15:00,20.8,1.8,30.44,NW,321,7.0,8.0,43,0.00,,,0.00,Wunderground v.1.15,2013-01-25 00:15:00,
2013-01-24 19:20:00,20.8,1.8,30.44,WNW,292,7.0,16.0,43,0.00,,,0.00,Wunderground v.1.15,2013-01-25 00:20:00,
2013-01-24 19:27:00,20.7,2.2,30.44,NNW,334,8.0,16.0,44,0.00,,,0.00,Wunderground v.1.15,2013-01-25 00:27:00,
2013-01-24 19:32:00,20.7,2.2,30.45,WNW,294,7.0,8.0,44,0.00,,,0.00,Wunderground v.1.15,2013-01-25 00:32:00,
2013-01-24 19:39:00,20.6,2.6,30.45,NNW,329,8.0,14.0,45,0.00,,,0.00,Wunderground v.1.15,2013-01-25 00:39:00,
2013-01-24 19:44:00,20.6,2.6,30.44,WNW,302,7.0,9.0,45,0.00,,,0.00,Wunderground v.1.15,2013-01-25 00:44:00,
2013-01-24 19:50:00,20.5,2.5,30.44,West,281,6.0,6.0,45,0.00,,,0.00,Wunderground v.1.15,2013-01-25 00:50:00,
2013-01-24 19:57:00,20.4,2.9,30.45,WNW,294,6.0,7.0,46,0.00,,,0.00,Wunderground v.1.15,2013-01-25 00:57:00,
2013-01-24 20:02:00,20.3,3.2,30.44,WNW,299,4.0,7.0,47,0.00,,,0.00,Wunderground v.1.15,2013-01-25 01:02:00,
2013-01-24 20:08:00,20.2,3.2,30.44,WNW,284,5.0,7.0,47,0.00,,,0.00,Wunderground v.1.15,2013-01-25 01:08:00,
2013-01-24 20:14:00,20.1,3.1,30.44,WNW,294,6.0,8.0,47,0.00,,,0.00,Wunderground v.1.15,2013-01-25 01:14:00,
2013-01-24 20:21:00,20.1,3.1,30.44,NW,306,7.0,10.0,47,0.00,,,0.00,Wunderground v.1.15,2013-01-25 01:21:00,
2013-01-24 20:26:00,20.2,2.7,30.44,NW,311,7.0,10.0,46,0.00,,,0.00,Wunderground v.1.15,2013-01-25 01:26:00,
2013-01-24 20:33:00,20.1,3.1,30.44,WNW,301,5.0,6.0,47,0.00,,,0.00,Wunderground v.1.15,2013-01-25 01:33:00,
2013-01-24 20:38:00,20.0,2.5,30.44,West,273,5.0,10.0,46,0.00,,,0.00,Wunderground v.1.15,2013-01-25 01:38:00,
2013-01-24 20:44:00,19.9,2.9,30.44,NW,320,5.0,7.0,47,0.00,,,0.00,Wunderground v.1.15,2013-01-25 01:44:00,
2013-01-24 20:50:00,19.7,2.7,30.44,WNW,301,4.0,4.0,47,0.00,,,0.00,Wunderground v.1.15,2013-01-25 01:50:00,
2013-01-24 20:56:00,19.7,2.7,30.44,NW,316,5.0,7.0,47,0.00,,,0.00,Wunderground v.1.15,2013-01-25 01:56:00,
2013-01-24 21:02:00,19.6,3.1,30.45,WNW,293,6.0,8.0,48,0.00,,,0.00,Wunderground v.1.15,2013-01-25 02:02:00,
2013-01-24 21:08:00,19.5,3.0,30.45,WNW,300,5.0,8.0,48,0.00,,,0.00,Wunderground v.1.15,2013-01-25 02:08:00,
2013-01-24 21:14:00,19.5,3.0,30.45,WNW,284,4.0,10.0,48,0.00,,,0.00,Wunderground v.1.15,2013-01-25 02:14:00,
2013-01-24 21:20:00,19.5,3.4,30.45,NW,321,5.0,5.0,49,0.00,,,0.00,Wunderground v.1.15,2013-01-25 02:20:00,
2013-01-24 21:27:00,19.5,3.4,30.45,WNW,292,5.0,6.0,49,0.00,,,0.00,Wunderground v.1.15,2013-01-25 02:27:00,
2013-01-24 21:32:00,19.3,3.7,30.45,WSW,248,4.0,5.0,50,0.00,,,0.00,Wunderground v.1.15,2013-01-25 02:32:00,
2013-01-24 21:38:00,19.2,3.6,30.45,NNW,327,4.0,5.0,50,0.00,,,0.00,Wunderground v.1.15,2013-01-25 02:38:00,
2013-01-24 21:44:00,19.2,3.6,30.45,WNW,296,5.0,9.0,50,0.00,,,0.00,Wunderground v.1.15,2013-01-25 02:44:00,
2013-01-24 21:50:00,19.1,3.5,30.45,NW,306,5.0,5.0,50,0.00,,,0.00,Wunderground v.1.15,2013-01-25 02:50:00,
2013-01-24 21:56:00,19.1,3.9,30.45,NW,309,5.0,14.0,51,0.00,,,0.00,Wunderground v.1.15,2013-01-25 02:56:00,
2013-01-24 22:02:00,19.0,3.4,30.45,WNW,302,6.0,6.0,50,0.00,,,0.00,Wunderground v.1.15,2013-01-25 03:02:00,
2013-01-24 22:08:00,18.9,3.7,30.45,NW,325,4.0,6.0,51,0.00,,,0.00,Wunderground v.1.15,2013-01-25 03:08:00,
2013-01-24 22:15:00,18.7,4.0,30.45,NW,313,3.0,4.0,52,0.00,,,0.00,Wunderground v.1.15,2013-01-25 03:15:00,
2013-01-24 22:20:00,18.6,3.9,30.45,WNW,282,2.0,3.0,52,0.00,,,0.00,Wunderground v.1.15,2013-01-25 03:20:00,
2013-01-24 22:27:00,18.4,4.1,30.45,WNW,287,3.0,6.0,53,0.00,,,0.00,Wunderground v.1.15,2013-01-25 03:27:00,
2013-01-24 22:32:00,18.4,4.1,30.45,NW,311,4.0,5.0,53,0.00,,,0.00,Wunderground v.1.15,2013-01-25 03:32:00,
2013-01-24 22:38:00,18.4,3.7,30.45,North,11,6.0,8.0,52,0.00,,,0.00,Wunderground v.1.15,2013-01-25 03:38:00,
2013-01-24 22:45:00,18.4,3.7,30.46,NNW,334,6.0,6.0,52,0.00,,,0.00,Wunderground v.1.15,2013-01-25 03:45:00,
2013-01-24 22:50:00,18.4,3.3,30.46,NW,311,5.0,5.0,51,0.00,,,0.00,Wunderground v.1.15,2013-01-25 03:50:00,
2013-01-24 22:56:00,18.4,3.3,30.46,WNW,302,5.0,7.0,51,0.00,,,0.00,Wunderground v.1.15,2013-01-25 03:56:00,
2013-01-24 23:02:00,18.4,3.3,30.46,NW,321,6.0,7.0,51,0.00,,,0.00,Wunderground v.1.15,2013-01-25 04:02:00,
2013-01-24 23:09:00,18.3,3.2,30.46,WNW,291,5.0,11.0,51,0.00,,,0.00,Wunderground v.1.15,2013-01-25 04:09:00,
2013-01-24 23:15:00,18.2,3.1,30.46,NNW,327,5.0,5.0,51,0.00,,,0.00,Wunderground v.1.15,2013-01-25 04:15:00,
2013-01-24 23:20:00,18.1,3.0,30.46,West,278,3.0,5.0,51,0.00,,,0.00,Wunderground v.1.15,2013-01-25 04:20:00,
2013-01-24 23:27:00,18.0,2.9,30.46,NNW,333,4.0,7.0,51,0.00,,,0.00,Wunderground v.1.15,2013-01-25 04:27:00,
2013-01-24 23:32:00,17.9,2.8,30.46,WNW,285,3.0,7.0,51,0.00,,,0.00,Wunderground v.1.15,2013-01-25 04:32:00,
2013-01-24 23:39:00,17.9,2.8,30.46,WNW,292,4.0,8.0,51,0.00,,,0.00,Wunderground v.1.15,2013-01-25 04:39:00,
2013-01-24 23:44:00,17.9,2.4,30.46,NW,312,5.0,8.0,50,0.00,,,0.00,Wunderground v.1.15,2013-01-25 04:44:00,
2013-01-24 23:50:00,17.8,2.3,30.46,WNW,294,6.0,6.0,50,0.00,,,0.00,Wunderground v.1.15,2013-01-25 04:50:00,
2013-01-24 23:57:00,17.8,2.3,30.46,NW,309,7.0,8.0,50,0.00,,,0.00,Wunderground v.1.15,2013-01-25 04:57:00,